createdAt,value
2018-08-13T00:03:57.149Z,19.10
2018-08-13T00:06:25.449Z,19.20
2018-08-13T00:08:53.893Z,19.20
2018-08-13T02:47:56.865Z,18.30
2018-08-13T02:50:25.508Z,18.40
2018-08-13T02:52:53.940Z,18.30
2018-08-13T02:55:22.376Z,18.40
2018-08-13T02:57:50.729Z,18.40
2018-08-13T03:00:19.300Z,18.40
2018-08-13T03:02:48.061Z,18.40
2018-08-13T03:05:16.477Z,18.50
2018-08-13T03:07:45.028Z,18.50
2018-08-13T03:10:13.974Z,18.50
2018-08-13T03:12:43.145Z,18.50
2018-08-13T03:15:14.759Z,18.50
2018-08-13T03:17:43.385Z,18.60
2018-08-13T03:20:11.854Z,18.60
2018-08-13T03:22:40.392Z,18.70
2018-08-13T04:03:25.064Z,18.80
2018-08-13T04:05:54.852Z,20.00
2018-08-13T04:08:23.356Z,19.90
2018-08-13T04:10:51.942Z,20.00
2018-08-13T04:13:20.459Z,20.10
2018-08-13T04:15:48.922Z,19.80
2018-08-13T04:18:17.319Z,19.90
2018-08-13T04:20:45.724Z,20.00
2018-08-13T04:23:14.105Z,19.80
2018-08-13T04:25:42.443Z,19.70
2018-08-13T04:28:10.808Z,19.40
2018-08-13T04:30:39.146Z,19.20
2018-08-13T04:33:07.514Z,19.10
2018-08-13T04:35:35.893Z,19.10
2018-08-13T04:38:04.315Z,18.90
2018-08-13T04:40:32.646Z,18.80
2018-08-13T04:43:01.008Z,18.70
2018-08-13T04:45:29.425Z,18.60
2018-08-13T04:47:57.780Z,18.50
2018-08-13T04:50:26.176Z,18.50
2018-08-13T04:52:54.489Z,18.40
2018-08-13T04:55:22.879Z,18.50
2018-08-13T04:57:51.341Z,18.60
2018-08-13T05:00:19.709Z,18.60
2018-08-13T05:02:48.053Z,18.70
2018-08-13T05:05:16.482Z,18.40
2018-08-13T05:07:44.831Z,18.40
2018-08-13T05:10:13.184Z,18.40
2018-08-13T05:12:41.861Z,18.40
2018-08-13T05:15:11.035Z,18.50
2018-08-13T05:17:39.501Z,18.60
2018-08-13T05:20:09.205Z,18.60
2018-08-13T05:22:37.525Z,18.60
2018-08-13T05:25:07.423Z,18.60
2018-08-13T05:27:35.866Z,18.60
2018-08-13T05:30:05.715Z,18.60
2018-08-13T05:32:34.046Z,18.70
2018-08-13T05:35:02.382Z,18.70
2018-08-13T05:37:30.797Z,18.80
2018-08-13T05:39:59.242Z,18.80
2018-08-13T05:42:27.688Z,18.80
2018-08-13T05:44:56.117Z,18.90
2018-08-13T05:47:24.488Z,18.70
2018-08-13T05:49:52.845Z,18.60
2018-08-13T05:52:21.271Z,18.50
2018-08-13T05:54:49.654Z,18.30
2018-08-13T05:57:18.038Z,18.30
2018-08-13T05:59:46.439Z,18.40
2018-08-13T06:02:14.842Z,18.30
2018-08-13T06:04:43.226Z,18.10
2018-08-13T06:07:11.598Z,18.00
2018-08-13T06:09:40.019Z,17.90
2018-08-13T06:12:08.385Z,17.80
2018-08-13T06:14:36.795Z,17.80
2018-08-13T06:17:05.165Z,17.90
2018-08-13T06:19:33.485Z,17.90
2018-08-13T06:22:01.909Z,17.90
2018-08-13T06:24:30.266Z,17.70
2018-08-13T06:26:58.654Z,17.90
2018-08-13T06:29:26.997Z,17.80
2018-08-13T06:31:55.555Z,17.90
2018-08-13T06:34:23.921Z,18.20
2018-08-13T06:36:52.286Z,18.40
2018-08-13T06:39:20.645Z,18.40
2018-08-13T06:41:49.037Z,18.70
2018-08-13T06:44:17.499Z,18.80
2018-08-13T06:46:45.813Z,19.00
2018-08-13T06:49:14.225Z,19.10
2018-08-13T06:51:42.639Z,18.90
2018-08-13T06:54:11.055Z,19.20
2018-08-13T06:56:39.468Z,19.20
2018-08-13T06:59:07.852Z,19.30
2018-08-13T07:01:36.367Z,19.30
2018-08-13T07:04:04.791Z,19.60
2018-08-13T07:06:33.133Z,19.60
2018-08-13T07:09:01.574Z,19.30
2018-08-13T07:11:30.061Z,19.40
2018-08-13T07:13:58.475Z,19.20
2018-08-13T07:16:26.841Z,19.10
2018-08-13T07:18:55.177Z,19.20
2018-08-13T07:21:23.631Z,19.10
2018-08-13T07:23:51.969Z,19.20
2018-08-13T07:26:20.394Z,19.30
2018-08-13T07:28:48.858Z,19.20
2018-08-13T07:31:17.237Z,19.20
2018-08-13T07:33:45.722Z,19.10
2018-08-13T07:36:14.104Z,19.00
2018-08-13T07:38:42.533Z,19.00
2018-08-13T07:41:10.921Z,19.10
2018-08-13T07:43:39.284Z,19.30
2018-08-13T07:46:07.727Z,19.00
2018-08-13T07:48:36.143Z,19.20
2018-08-13T07:51:04.509Z,19.00
2018-08-13T07:53:32.887Z,18.90
2018-08-13T07:56:01.285Z,18.90
2018-08-13T07:58:29.862Z,19.10
2018-08-13T08:00:58.269Z,19.10
2018-08-13T08:03:26.820Z,19.40
2018-08-13T08:05:55.189Z,19.30
2018-08-13T08:08:23.570Z,19.40
2018-08-13T08:10:51.962Z,19.60
2018-08-13T08:13:20.561Z,19.60
2018-08-13T08:15:48.901Z,19.70
2018-08-13T08:18:17.321Z,19.70
2018-08-13T08:20:45.626Z,19.80
2018-08-13T08:23:13.995Z,19.80
2018-08-13T08:25:42.372Z,19.90
2018-08-13T08:28:10.725Z,19.90
2018-08-13T08:30:39.105Z,19.80
2018-08-13T08:33:07.493Z,19.90
2018-08-13T08:35:35.853Z,19.90
2018-08-13T08:38:04.308Z,20.10
2018-08-13T08:40:32.764Z,20.20
2018-08-13T08:43:01.072Z,20.40
2018-08-13T08:45:29.443Z,19.90
2018-08-13T08:47:58.018Z,19.80
2018-08-13T08:50:26.728Z,19.80
2018-08-13T08:52:55.102Z,19.70
2018-08-13T08:55:23.520Z,19.80
2018-08-13T08:57:51.945Z,19.60
2018-08-13T09:00:21.760Z,19.80
2018-08-13T09:02:50.165Z,19.80
2018-08-13T09:05:19.178Z,19.80
2018-08-13T09:07:47.773Z,19.90
2018-08-13T09:10:16.271Z,19.90
2018-08-13T09:12:44.661Z,20.10
2018-08-13T09:15:15.034Z,20.50
2018-08-13T09:17:55.102Z,20.90
2018-08-13T09:20:34.979Z,20.90
2018-08-13T09:23:14.695Z,21.30
2018-08-13T09:25:54.473Z,21.30
2018-08-13T09:28:34.239Z,21.70
2018-08-13T09:31:15.527Z,21.40
2018-08-13T09:33:55.240Z,21.30
2018-08-13T09:36:23.613Z,21.50
2018-08-13T09:38:52.028Z,21.70
2018-08-13T09:41:20.649Z,21.70
2018-08-13T09:43:49.004Z,21.60
2018-08-13T09:46:17.339Z,21.50
2018-08-13T09:48:45.732Z,21.60
2018-08-13T09:51:14.093Z,21.60
2018-08-13T09:53:42.485Z,21.50
2018-08-13T09:56:10.849Z,21.70
2018-08-13T09:58:39.355Z,21.70
2018-08-13T10:01:09.746Z,21.70
2018-08-13T10:03:38.330Z,21.60
2018-08-13T10:06:06.794Z,21.50
2018-08-13T10:08:35.214Z,21.60
2018-08-13T10:11:03.874Z,21.50
2018-08-13T10:13:34.302Z,21.50
2018-08-13T10:16:02.765Z,21.50
2018-08-13T10:18:31.586Z,21.50
2018-08-13T10:21:02.199Z,21.40
2018-08-13T10:23:31.051Z,20.90
2018-08-13T10:26:01.213Z,20.50
2018-08-13T10:28:32.619Z,20.40
2018-08-13T10:31:04.097Z,20.30
2018-08-13T10:33:33.039Z,20.10
2018-08-13T10:36:08.150Z,20.30
2018-08-13T10:38:38.412Z,20.50
2018-08-13T10:41:15.071Z,20.00
2018-08-13T10:43:44.216Z,20.20
2018-08-13T10:46:14.065Z,20.50
2018-08-13T10:48:42.861Z,20.20
2018-08-13T10:51:11.928Z,20.50
2018-08-13T10:53:41.463Z,20.40
2018-08-13T10:56:09.995Z,20.40
2018-08-13T10:58:38.261Z,20.60
2018-08-13T11:01:06.955Z,21.00
2018-08-13T11:03:35.272Z,21.10
2018-08-13T11:06:03.703Z,21.40
2018-08-13T11:08:32.060Z,21.60
2018-08-13T11:11:00.429Z,21.60
2018-08-13T11:13:28.887Z,21.60
2018-08-13T11:15:57.272Z,21.90
2018-08-13T11:18:25.624Z,21.80
2018-08-13T11:20:53.927Z,21.70
2018-08-13T11:23:22.354Z,21.60
2018-08-13T11:25:50.669Z,21.80
2018-08-13T11:28:19.113Z,21.70
2018-08-13T11:30:47.446Z,21.70
2018-08-13T11:33:15.805Z,21.70
2018-08-13T11:35:45.215Z,21.80
2018-08-13T11:38:13.603Z,22.10
2018-08-13T11:40:42.045Z,22.40
2018-08-13T11:43:10.374Z,22.50
2018-08-13T11:45:38.944Z,22.40
2018-08-13T11:48:07.323Z,22.50
2018-08-13T11:50:35.731Z,23.00
2018-08-13T11:53:04.082Z,23.30
2018-08-13T11:55:32.469Z,23.50
2018-08-13T11:58:00.829Z,23.70
2018-08-13T12:00:29.246Z,23.30
2018-08-13T12:02:57.629Z,22.80
2018-08-13T12:05:26.090Z,23.10
2018-08-13T12:07:54.465Z,23.10
2018-08-13T12:10:22.904Z,23.10
2018-08-13T12:12:51.365Z,23.70
2018-08-13T12:15:19.716Z,24.10
2018-08-13T12:17:48.037Z,24.20
2018-08-13T12:20:22.121Z,24.10
2018-08-13T12:22:50.485Z,24.10
2018-08-13T12:25:29.943Z,24.40
2018-08-13T12:27:58.554Z,24.60
2018-08-13T12:30:27.110Z,24.30
2018-08-13T12:32:59.596Z,24.00
2018-08-13T12:35:29.575Z,23.60
2018-08-13T12:37:58.340Z,23.20
2018-08-13T12:40:27.064Z,22.80
2018-08-13T12:42:55.535Z,22.00
2018-08-13T12:45:24.942Z,20.90
2018-08-13T12:47:58.556Z,21.10
2018-08-13T12:50:30.905Z,21.00
2018-08-13T12:53:01.957Z,20.90
2018-08-13T12:55:30.846Z,21.20
2018-08-13T12:58:01.100Z,21.60
2018-08-13T13:00:30.422Z,21.80
2018-08-13T13:02:59.948Z,22.20
2018-08-13T13:05:28.673Z,22.40
2018-08-13T13:08:01.810Z,22.50
2018-08-13T13:10:30.743Z,22.40
2018-08-13T13:12:59.364Z,22.30
2018-08-13T13:15:28.509Z,22.30
2018-08-13T13:18:06.893Z,22.30
2018-08-13T13:20:35.314Z,22.50
2018-08-13T13:23:07.942Z,22.30
2018-08-13T13:25:38.071Z,22.50
2018-08-13T13:28:09.806Z,22.50
2018-08-13T13:30:48.195Z,23.00
2018-08-13T13:33:16.506Z,22.80
2018-08-13T13:35:44.888Z,22.60
2018-08-13T13:38:13.229Z,22.10
2018-08-13T13:40:41.782Z,22.10
2018-08-13T13:43:10.542Z,22.10
2018-08-13T13:45:38.998Z,22.40
2018-08-13T13:48:07.562Z,22.30
2018-08-13T13:50:47.022Z,22.30
2018-08-13T13:53:31.035Z,22.50
2018-08-13T13:56:00.649Z,22.50
2018-08-13T13:58:32.549Z,22.50
2018-08-13T14:01:08.254Z,22.60
2018-08-13T14:03:40.375Z,22.80
2018-08-13T14:06:09.447Z,23.20
2018-08-13T14:08:40.179Z,23.50
2018-08-13T14:11:11.349Z,24.20
2018-08-13T14:13:39.755Z,24.40
2018-08-13T14:16:13.246Z,24.90
2018-08-13T14:18:41.781Z,25.40
2018-08-13T14:21:10.161Z,25.60
2018-08-13T14:23:40.854Z,25.50
2018-08-13T14:26:10.498Z,25.10
2018-08-13T14:28:39.013Z,24.70
2018-08-13T14:31:07.405Z,24.70
2018-08-13T14:33:35.794Z,24.70
2018-08-13T14:36:04.258Z,24.70
2018-08-13T14:38:49.901Z,24.80
2018-08-13T14:41:25.301Z,24.50
2018-08-13T14:43:53.716Z,24.50
2018-08-13T14:46:22.105Z,24.10
2018-08-13T14:48:50.359Z,23.80
2018-08-13T14:51:36.632Z,23.90
2018-08-13T14:54:08.027Z,24.00
2018-08-13T14:56:38.814Z,23.90
2018-08-13T14:59:28.800Z,24.20
2018-08-13T15:02:09.937Z,24.40
2018-08-13T15:04:43.911Z,24.30
2018-08-13T15:07:24.701Z,24.10
2018-08-13T15:10:07.437Z,24.20
2018-08-13T15:12:43.915Z,23.80
2018-08-13T15:15:23.506Z,24.20
2018-08-13T15:18:13.026Z,24.70
2018-08-13T15:23:22.569Z,25.10
2018-08-13T15:26:00.287Z,26.30
2018-08-13T15:28:39.017Z,25.80
2018-08-13T15:31:16.398Z,25.70
2018-08-13T15:33:49.356Z,26.10
2018-08-13T15:36:19.226Z,25.90
2018-08-13T15:38:52.558Z,25.90
2018-08-13T15:41:27.783Z,25.60
2018-08-13T15:44:03.618Z,26.50
2018-08-13T15:52:34.313Z,26.30
2018-08-13T15:55:08.692Z,26.00
2018-08-13T15:57:43.955Z,25.40
2018-08-13T16:00:23.069Z,25.60
2018-08-13T16:02:56.350Z,25.50
2018-08-13T16:05:31.071Z,25.50
2018-08-13T16:08:04.862Z,25.40
2018-08-13T16:10:38.283Z,25.30
2018-08-13T16:13:07.034Z,24.70
2018-08-13T16:15:40.210Z,24.60
2018-08-13T16:18:17.555Z,24.00
2018-08-13T16:20:45.968Z,23.70
2018-08-13T16:23:14.337Z,23.60
2018-08-13T16:28:22.674Z,23.60
2018-08-13T16:30:51.018Z,23.60
2018-08-13T16:33:20.505Z,23.30
2018-08-13T16:35:55.635Z,23.30
2018-08-13T16:38:42.506Z,24.10
2018-08-13T16:41:11.090Z,24.30
2018-08-13T16:46:25.157Z,24.10
2018-08-13T16:48:53.491Z,23.70
2018-08-13T16:54:06.147Z,23.20
2018-08-13T16:56:37.168Z,23.20
2018-08-13T16:59:16.517Z,23.50
2018-08-13T17:01:46.222Z,23.60
2018-08-13T17:04:14.704Z,23.60
2018-08-13T17:06:43.141Z,23.60
2018-08-13T17:09:12.121Z,23.70
2018-08-13T17:11:40.691Z,23.50
2018-08-13T17:14:13.958Z,23.50
2018-08-13T17:16:44.324Z,23.50
2018-08-13T17:19:12.997Z,23.50
2018-08-13T17:21:41.553Z,23.30
2018-08-13T17:24:12.065Z,23.50
2018-08-13T17:26:40.817Z,23.90
2018-08-13T17:29:09.321Z,24.00
2018-08-13T17:31:38.414Z,24.50
2018-08-13T17:34:07.704Z,25.00
2018-08-13T17:36:36.081Z,24.70
2018-08-13T17:39:08.179Z,24.30
2018-08-13T17:41:36.613Z,24.50
2018-08-13T17:44:05.125Z,24.30
2018-08-13T17:46:33.474Z,24.00
2018-08-13T17:49:01.878Z,24.10
2018-08-13T17:51:30.338Z,24.30
2018-08-13T17:53:59.073Z,24.30
2018-08-13T17:56:27.509Z,24.20
2018-08-13T17:58:55.898Z,24.30
2018-08-13T18:01:24.310Z,24.60
2018-08-13T18:03:53.297Z,24.50
2018-08-13T18:06:21.741Z,24.10
2018-08-13T18:08:50.091Z,24.30
2018-08-13T18:11:18.546Z,24.10
2018-08-13T18:13:46.927Z,23.90
2018-08-13T18:16:15.261Z,23.90
2018-08-13T18:18:43.984Z,23.80
2018-08-13T18:21:12.385Z,23.90
2018-08-13T18:23:40.715Z,23.90
2018-08-13T18:26:09.420Z,24.00
2018-08-13T18:28:37.942Z,24.00
2018-08-13T18:31:07.060Z,23.70
2018-08-13T18:33:35.691Z,23.80
2018-08-13T18:36:04.177Z,23.60
2018-08-13T18:38:32.591Z,23.10
2018-08-13T18:41:01.043Z,22.90
2018-08-13T18:43:29.479Z,22.70
2018-08-13T18:45:57.955Z,22.80
2018-08-13T18:48:26.317Z,22.80
2018-08-13T18:50:54.704Z,22.70
2018-08-13T18:53:23.169Z,22.50
2018-08-13T18:55:51.547Z,22.50
2018-08-13T18:58:19.926Z,22.50
2018-08-13T19:00:51.513Z,22.50
2018-08-13T19:03:20.097Z,22.20
2018-08-13T19:05:48.614Z,22.10
2018-08-13T19:08:17.173Z,22.00
2018-08-13T19:10:45.749Z,21.80
2018-08-13T19:13:14.379Z,21.70
2018-08-13T19:15:42.860Z,22.00
2018-08-13T19:18:11.200Z,21.80
2018-08-13T19:20:39.770Z,21.80
2018-08-13T19:23:08.209Z,22.10
2018-08-13T19:25:36.605Z,21.80
2018-08-13T19:28:05.467Z,21.70
2018-08-13T19:30:33.935Z,21.70
2018-08-13T19:33:02.415Z,21.90
2018-08-13T19:35:31.022Z,21.90
2018-08-13T19:37:59.466Z,21.80
2018-08-13T19:40:28.044Z,21.80
2018-08-13T19:42:56.452Z,21.70
2018-08-13T19:45:25.083Z,21.70
2018-08-13T19:47:54.055Z,21.60
2018-08-13T19:50:22.495Z,21.60
2018-08-13T19:52:51.524Z,21.50
2018-08-13T19:55:20.319Z,21.50
2018-08-13T19:57:51.654Z,21.50
2018-08-13T20:00:21.724Z,21.50
2018-08-13T20:02:50.987Z,21.40
2018-08-13T20:05:21.055Z,21.20
2018-08-13T20:07:51.984Z,21.30
2018-08-13T20:10:21.017Z,21.20
2018-08-13T20:12:49.562Z,21.30
2018-08-13T20:15:18.151Z,21.20
2018-08-13T20:17:46.664Z,21.30
2018-08-13T20:20:16.429Z,21.30
2018-08-13T20:22:45.697Z,21.20
2018-08-13T20:25:15.580Z,21.20
2018-08-13T20:27:44.429Z,21.20
2018-08-13T20:30:15.193Z,21.00
2018-08-13T20:32:45.286Z,20.90
2018-08-13T20:35:13.804Z,21.00
2018-08-13T20:37:42.402Z,21.00
2018-08-13T20:40:12.923Z,21.00
2018-08-13T20:42:42.077Z,20.90
2018-08-13T20:45:13.749Z,21.10
2018-08-13T20:47:42.736Z,21.10
2018-08-13T20:50:13.953Z,20.80
2018-08-13T20:52:42.985Z,20.80
2018-08-13T20:55:15.121Z,20.70
2018-08-13T20:57:44.265Z,20.70
2018-08-13T21:00:13.987Z,20.50
2018-08-13T21:02:43.481Z,20.50
2018-08-13T21:05:12.852Z,20.60
2018-08-13T21:07:41.455Z,20.60
2018-08-13T21:10:12.178Z,20.50
2018-08-13T21:12:40.901Z,20.60
2018-08-13T21:15:11.563Z,20.70
2018-08-13T21:17:40.091Z,20.70
2018-08-13T21:20:09.338Z,20.60
2018-08-13T21:22:38.411Z,20.60
2018-08-13T21:25:09.894Z,20.50
2018-08-13T21:27:38.454Z,20.50
2018-08-13T21:30:07.116Z,20.50
2018-08-13T21:32:35.680Z,20.50
2018-08-13T21:35:04.349Z,20.40
2018-08-13T21:37:33.081Z,20.50
2018-08-13T21:40:01.577Z,20.30
2018-08-13T21:42:29.990Z,20.40
2018-08-13T21:44:58.607Z,20.30
2018-08-13T21:47:27.102Z,20.30
2018-08-13T21:49:55.640Z,20.40
2018-08-13T21:52:24.295Z,20.20
2018-08-13T21:54:52.763Z,20.20
2018-08-13T21:57:25.173Z,20.20
2018-08-13T21:59:54.891Z,20.10
2018-08-13T22:02:23.323Z,20.00
2018-08-13T22:04:51.849Z,20.00
2018-08-13T22:07:20.321Z,20.10
2018-08-13T22:09:48.705Z,20.00
2018-08-13T22:12:19.584Z,20.00
2018-08-13T22:14:48.529Z,20.10
2018-08-13T22:17:16.994Z,20.00
2018-08-13T22:19:45.495Z,20.10
2018-08-13T22:22:14.005Z,20.00
2018-08-13T22:24:53.594Z,19.90
2018-08-13T22:27:21.981Z,20.00
2018-08-13T22:29:50.361Z,20.00
2018-08-13T22:32:18.763Z,19.90
2018-08-13T22:34:47.211Z,19.90
2018-08-13T22:37:15.563Z,19.80
2018-08-13T22:39:43.957Z,19.80
2018-08-13T22:42:12.457Z,19.80
2018-08-13T22:44:40.963Z,19.80
2018-08-13T22:47:09.582Z,19.80
2018-08-13T22:49:38.060Z,19.70
2018-08-13T22:52:06.895Z,19.90
2018-08-13T22:54:35.256Z,20.00
2018-08-13T22:57:04.106Z,19.90
2018-08-13T22:59:32.828Z,19.90
